Time;durP1;ratioP1;P1;durP2;ratioP2;P2;SDS_P1;SDS_P2;PMS_P1;PMS_P2;Temp;Humidity;BMP_temperature;BMP_pressure;BME280_temperature;BME280_humidity;BME280_pressure;Samples;Min_cycle;Max_cycle;Signal;HPM_P1;HPM_P2
2023/03/20 00:00:47;;;;;;;48.60;20.87;;;;;;;-141.97;68.42;47542.16;4974824;28;20404;-87
2023/03/20 00:03:13;;;;;;;44.03;22.30;;;;;;;-141.97;68.11;47559.44;4973959;28;20530;-86
2023/03/20 00:05:39;;;;;;;45.93;22.60;;;;;;;-141.97;67.29;47653.63;4974542;28;20506;-86
2023/03/20 00:08:05;;;;;;;51.07;26.60;;;;;;;-141.97;67.11;47584.44;4974115;28;20183;-88
2023/03/20 00:10:40;;;;;;;55.40;26.23;;;;;;;-141.97;67.00;47619.03;4974414;28;20411;-87
2023/03/20 00:13:09;;;;;;;59.60;28.43;;;;;;;-141.97;66.75;47615.19;4973459;28;20399;-87
2023/03/20 00:15:37;;;;;;;57.90;27.73;;;;;;;-141.97;66.71;47649.78;4973415;28;20403;-87
2023/03/20 00:18:10;;;;;;;61.60;28.47;;;;;;;-141.97;67.18;47511.38;4973633;28;20400;-87
2023/03/20 00:20:36;;;;;;;56.93;28.57;;;;;;;-141.97;66.76;47486.41;4972387;28;20839;-87
2023/03/20 00:23:03;;;;;;;56.50;28.20;;;;;;;-141.97;67.20;47578.66;4973237;28;20451;-87
2023/03/20 00:25:28;;;;;;;52.63;27.40;;;;;;;-141.97;67.51;47534.44;4988687;28;20213;-89
2023/03/20 00:27:54;;;;;;;57.40;27.33;;;;;;;-141.97;67.14;47546.00;4997863;28;20408;-89
2023/03/20 00:30:28;;;;;;;55.37;26.97;;;;;;;-141.97;67.12;47617.09;4992483;28;20187;-88
2023/03/20 00:32:55;;;;;;;55.33;26.53;;;;;;;-141.97;67.86;47653.63;4974157;28;20784;-86
2023/03/20 00:35:28;;;;;;;52.60;27.40;;;;;;;-141.97;67.51;47607.50;4971934;28;20772;-86
2023/03/20 00:37:57;;;;;;;48.73;25.93;;;;;;;-141.97;67.72;47567.13;4972743;28;20613;-88
2023/03/20 00:40:30;;;;;;;49.83;25.40;;;;;;;-141.97;68.14;47496.00;4973026;28;20415;-87
2023/03/20 00:43:01;;;;;;;54.57;26.77;;;;;;;-141.97;67.90;47755.50;4972610;28;20975;-86
2023/03/20 00:45:29;;;;;;;53.53;27.03;;;;;;;-141.97;67.90;47642.09;4972997;28;20396;-86
2023/03/20 00:47:56;;;;;;;52.03;26.90;;;;;;;-141.97;68.07;47640.16;4971568;28;20415;-86
2023/03/20 00:50:24;;;;;;;55.20;27.30;;;;;;;-141.97;67.80;47461.41;4972945;28;20416;-85
2023/03/20 00:52:51;;;;;;;51.60;26.37;;;;;;;-141.97;67.93;47622.88;4971734;28;20494;-86
2023/03/20 00:55:21;;;;;;;51.00;26.30;;;;;;;-141.97;68.26;47530.59;4972564;28;20465;-86
2023/03/20 00:57:51;;;;;;;50.10;26.37;;;;;;;-141.97;67.98;47626.72;4972604;28;20407;-86
2023/03/20 01:00:30;;;;;;;49.63;26.30;;;;;;;-141.97;67.95;47590.19;4971466;28;20419;-87
2023/03/20 01:02:57;;;;;;;57.73;27.83;;;;;;;-141.97;67.70;47686.31;4972579;28;20803;-87
2023/03/20 01:05:24;;;;;;;62.97;28.20;;;;;;;-141.97;67.17;47549.84;4972735;28;20482;-85
2023/03/20 01:07:50;;;;;;;74.60;32.63;;;;;;;-141.97;67.20;47661.31;4972624;28;20438;-85
2023/03/20 01:10:16;;;;;;;92.27;36.97;;;;;;;-141.97;66.99;47682.47;4972453;28;20403;-84
2023/03/20 01:12:42;;;;;;;97.80;38.20;;;;;;;-141.97;66.45;47620.94;4972474;28;20160;-87
2023/03/20 01:15:19;;;;;;;104.13;38.93;;;;;;;-141.97;66.07;47565.22;4972714;28;20404;-85
2023/03/20 01:17:45;;;;;;;143.13;48.47;;;;;;;-141.97;66.05;47565.22;4971311;28;20450;-87
2023/03/20 01:20:16;;;;;;;100.40;38.17;;;;;;;-141.97;65.93;47642.09;4973453;28;20572;-87
2023/03/20 01:22:42;;;;;;;78.43;32.93;;;;;;;-141.97;65.70;47597.88;4972598;28;20441;-86
2023/03/20 01:25:08;;;;;;;75.97;33.23;;;;;;;-141.97;65.91;47690.16;4968386;28;20503;-86
2023/03/20 01:27:33;;;;;;;76.50;32.33;;;;;;;-141.97;65.82;47620.94;4954153;28;20211;-87
2023/03/20 01:29:59;;;;;;;75.33;33.37;;;;;;;-141.97;65.97;47626.72;4964625;28;20188;-86
2023/03/20 01:32:24;;;;;;;79.07;33.47;;;;;;;-141.97;66.22;47669.00;4971166;28;20221;-86
2023/03/20 01:34:50;;;;;;;114.73;42.03;;;;;;;-141.97;66.31;47595.97;4972773;28;20173;-86
2023/03/20 01:37:26;;;;;;;138.17;47.47;;;;;;;-141.97;66.64;47676.69;4972079;28;20161;-85
2023/03/20 01:39:53;;;;;;;132.57;49.57;;;;;;;-141.97;66.76;47682.47;4972051;28;20202;-88
2023/03/20 01:42:18;;;;;;;107.50;42.83;;;;;;;-141.97;66.68;47528.69;4975937;28;20777;-86
2023/03/20 01:44:45;;;;;;;108.03;42.80;;;;;;;-141.97;66.71;47630.56;4976071;28;20478;-87
2023/03/20 01:47:22;;;;;;;115.77;44.43;;;;;;;-141.97;67.09;47730.50;4976712;28;20160;-87
2023/03/20 01:50:15;;;;;;;98.37;39.37;;;;;;;-141.97;67.56;47595.97;4976462;28;20407;-85
2023/03/20 01:52:41;;;;;;;79.63;35.80;;;;;;;-141.97;68.16;47661.31;4976840;28;20407;-87
2023/03/20 01:55:06;;;;;;;78.60;34.97;;;;;;;-141.97;68.22;47613.25;4976357;28;20407;-86
2023/03/20 01:57:32;;;;;;;90.10;36.00;;;;;;;-141.97;68.16;47603.66;4975935;28;20176;-86
2023/03/20 02:00:09;;;;;;;141.13;49.77;;;;;;;-141.97;68.18;47582.50;4977985;28;20176;-85
2023/03/20 02:02:36;;;;;;;120.33;42.63;;;;;;;-141.97;67.94;47624.78;4977937;28;20171;-86
2023/03/20 02:05:06;;;;;;;81.77;34.33;;;;;;;-141.97;68.27;47582.50;4975898;28;20494;-86
2023/03/20 02:07:33;;;;;;;73.97;31.97;;;;;;;-141.97;68.28;47703.59;4977299;28;20411;-86
2023/03/20 02:10:01;;;;;;;59.23;25.73;;;;;;;-141.97;68.76;47524.84;4975726;28;20439;-86
2023/03/20 02:12:27;;;;;;;54.60;24.73;;;;;;;-141.97;70.82;47672.84;4975716;28;20412;-85
2023/03/20 02:14:53;;;;;;;47.50;22.40;;;;;;;-141.97;71.51;47580.59;4974357;28;20412;-85
2023/03/20 02:17:18;;;;;;;46.93;23.17;;;;;;;-141.97;71.83;47546.00;4975568;28;20408;-85
2023/03/20 02:20:13;;;;;;;52.63;24.27;;;;;;;-141.97;71.90;47615.19;4978256;28;20250;-88
2023/03/20 02:22:57;;;;;;;72.33;31.50;;;;;;;-141.97;70.65;47595.97;4976641;28;20195;-86
2023/03/20 02:25:40;;;;;;;103.57;43.43;;;;;;;-141.97;70.82;47624.78;4975756;28;20499;-87
2023/03/20 02:28:20;;;;;;;105.63;45.33;;;;;;;-141.97;71.27;47626.72;4975663;28;20893;-88
2023/03/20 02:31:10;;;;;;;114.63;48.60;;;;;;;-141.97;71.76;47576.75;4974567;28;20856;-88
2023/03/20 02:33:53;;;;;;;100.20;41.30;;;;;;;-141.97;72.23;47642.09;4975823;28;20507;-87
2023/03/20 02:36:52;;;;;;;80.90;37.43;;;;;;;-141.97;72.32;47657.47;4975977;28;20416;-86
2023/03/20 02:39:26;;;;;;;97.27;42.37;;;;;;;-141.97;72.97;47638.25;4975489;28;20470;-86
2023/03/20 02:42:24;;;;;;;135.40;54.97;;;;;;;-141.97;73.22;47595.97;4975395;28;20411;-86
2023/03/20 02:45:07;;;;;;;126.73;50.07;;;;;;;-141.97;72.81;47630.56;4954499;29;20468;-86
2023/03/20 02:47:45;;;;;;;144.27;55.87;;;;;;;-141.97;73.51;47599.81;4955077;29;20457;-87
2023/03/20 02:50:20;;;;;;;102.43;47.30;;;;;;;-141.97;74.05;47572.91;4953954;28;20483;-86
2023/03/20 02:52:58;;;;;;;58.20;28.60;;;;;;;-141.97;74.30;47622.88;4973702;28;20438;-88
2023/03/20 02:55:42;;;;;;;50.43;24.20;;;;;;;-141.97;73.96;47651.69;4979504;28;20431;-87
2023/03/20 02:58:22;;;;;;;59.00;27.30;;;;;;;-141.97;74.35;47713.22;4964875;28;20432;-86
2023/03/20 03:01:13;;;;;;;53.10;25.37;;;;;;;-141.97;75.27;47592.13;4954065;29;20604;-86
2023/03/20 03:03:45;;;;;;;59.50;26.23;;;;;;;-141.97;75.52;47569.06;4937330;29;20471;-86
2023/03/20 03:06:17;;;;;;;57.37;23.40;;;;;;;-141.97;74.69;47707.44;4953806;29;20430;-87
2023/03/20 03:08:48;;;;;;;47.23;22.50;;;;;;;-141.97;74.88;47676.69;4953327;29;20532;-86
2023/03/20 03:11:14;;;;;;;53.67;24.33;;;;;;;-141.97;75.53;47642.09;4953333;29;20408;-87
2023/03/20 03:13:44;;;;;;;54.97;27.83;;;;;;;-141.97;74.71;47511.38;4953351;29;20503;-86
2023/03/20 03:16:16;;;;;;;83.03;33.37;;;;;;;-141.97;74.17;47701.69;4953602;29;20165;-86
2023/03/20 03:18:43;;;;;;;59.93;27.43;;;;;;;-141.97;73.71;47628.63;4953220;29;20860;-87
2023/03/20 03:21:12;;;;;;;65.67;29.27;;;;;;;-141.97;73.72;47669.00;4963992;28;20438;-85
2023/03/20 03:23:48;;;;;;;76.03;31.10;;;;;;;-141.97;73.25;47628.63;4974690;28;20458;-85
2023/03/20 03:26:26;;;;;;;102.93;35.77;;;;;;;-141.97;73.33;47619.03;4974491;28;20434;-85
2023/03/20 03:29:00;;;;;;;124.83;41.87;;;;;;;-141.97;72.92;47651.69;4974415;28;20488;-87
2023/03/20 03:31:28;;;;;;;70.83;30.37;;;;;;;-141.97;72.77;47638.25;4973045;28;20778;-87
2023/03/20 03:33:56;;;;;;;65.57;29.00;;;;;;;-141.97;71.92;47703.59;4975014;28;20903;-87
2023/03/20 03:36:27;;;;;;;101.70;37.43;;;;;;;-141.97;72.79;47632.47;4975226;28;20406;-86
2023/03/20 03:39:16;;;;;;;85.57;35.73;;;;;;;-141.97;73.60;47624.78;4975092;28;20473;-86
2023/03/20 03:42:06;;;;;;;57.30;26.80;;;;;;;-141.97;75.30;47634.41;4974662;28;20497;-88
2023/03/20 03:44:50;;;;;;;62.60;26.93;;;;;;;-141.97;75.80;47634.41;4974635;28;20451;-87
2023/03/20 03:47:26;;;;;;;62.17;25.57;;;;;;;-141.97;75.08;47622.88;4974683;28;20497;-86
2023/03/20 03:49:58;;;;;;;57.63;25.50;;;;;;;-141.97;74.59;47595.97;4974814;28;20434;-86
2023/03/20 03:52:26;;;;;;;56.80;24.97;;;;;;;-141.97;75.06;47567.13;4974512;28;20400;-87
2023/03/20 03:55:00;;;;;;;51.97;25.80;;;;;;;-141.97;74.59;47713.22;4974483;28;20931;-87
2023/03/20 03:58:07;;;;;;;49.27;22.50;;;;;;;-141.97;74.62;47651.69;4980250;28;20403;-86
2023/03/20 04:00:34;;;;;;;48.70;21.90;;;;;;;-141.97;74.58;47642.09;4952984;29;20551;-85
2023/03/20 04:03:01;;;;;;;51.43;22.50;;;;;;;-141.97;74.18;47586.34;4936214;29;20427;-87
2023/03/20 04:05:30;;;;;;;58.40;26.47;;;;;;;-141.97;73.99;47615.19;4952764;29;20432;-85
2023/03/20 04:07:58;;;;;;;53.67;23.13;;;;;;;-141.97;74.83;47597.88;4954717;29;20491;-87
2023/03/20 04:10:24;;;;;;;55.10;24.53;;;;;;;-141.97;75.06;47684.38;4954483;29;20483;-86
2023/03/20 04:12:50;;;;;;;67.63;30.43;;;;;;;-141.97;75.12;47630.56;4953471;29;20426;-86
2023/03/20 04:15:16;;;;;;;218.20;73.53;;;;;;;-141.97;75.07;47563.28;4953328;29;20219;-87
2023/03/20 04:17:42;;;;;;;55.27;25.47;;;;;;;-141.97;74.87;47647.84;4952522;29;20279;-88
2023/03/20 04:20:10;;;;;;;49.33;23.33;;;;;;;-141.97;74.69;47595.97;4952911;29;20905;-84
2023/03/20 04:22:35;;;;;;;66.13;27.50;;;;;;;-141.97;73.98;47588.28;4952614;29;20400;-85
2023/03/20 04:25:05;;;;;;;51.87;24.17;;;;;;;-141.97;74.24;47619.03;4952814;29;20492;-88
2023/03/20 04:27:30;;;;;;;38.13;18.10;;;;;;;-141.97;74.22;47492.16;4952516;29;20215;-86
2023/03/20 04:29:56;;;;;;;44.30;19.50;;;;;;;-141.97;74.14;47519.06;4952699;29;20940;-87
2023/03/20 04:32:22;;;;;;;47.57;22.37;;;;;;;-141.97;73.94;47661.31;4952195;29;20212;-88
2023/03/20 04:34:47;;;;;;;36.07;18.57;;;;;;;-141.97;74.14;47634.41;4951814;29;20275;-86
2023/03/20 04:37:13;;;;;;;38.07;17.30;;;;;;;-141.97;73.77;47603.66;4966734;28;20192;-86
2023/03/20 04:39:41;;;;;;;42.17;20.30;;;;;;;-141.97;73.56;47617.09;4972138;28;20176;-87
2023/03/20 04:42:09;;;;;;;52.43;25.67;;;;;;;-141.97;73.52;47499.84;4972332;28;20187;-87
2023/03/20 04:44:34;;;;;;;82.97;36.67;;;;;;;-141.97;73.22;47703.59;4973505;28;20455;-88
2023/03/20 04:47:00;;;;;;;95.83;45.60;;;;;;;-141.97;72.85;47601.72;4973434;28;20498;-88
2023/03/20 04:49:27;;;;;;;67.13;32.53;;;;;;;-141.97;73.00;47546.00;4973782;28;20176;-86
2023/03/20 04:51:53;;;;;;;90.23;40.50;;;;;;;-141.97;72.92;47642.09;4972532;28;20247;-86
2023/03/20 04:54:19;;;;;;;78.50;36.30;;;;;;;-141.97;71.89;47638.25;4972799;28;20404;-87
2023/03/20 04:56:44;;;;;;;76.90;36.33;;;;;;;-141.97;71.97;47607.50;4973991;28;20411;-87
2023/03/20 04:59:10;;;;;;;86.07;38.07;;;;;;;-141.97;71.79;47607.50;4974716;28;20164;-85
2023/03/20 05:01:35;;;;;;;81.57;41.40;;;;;;;-141.97;71.14;47592.13;4974255;28;20623;-86
2023/03/20 05:04:01;;;;;;;120.27;58.13;;;;;;;-141.97;71.40;47601.72;4975631;28;20197;-85
2023/03/20 05:06:27;;;;;;;124.63;55.90;;;;;;;-141.97;71.53;47684.38;4971770;28;20190;-87
2023/03/20 05:08:53;;;;;;;127.67;55.50;;;;;;;-141.97;70.79;47638.25;4971169;28;20201;-88
2023/03/20 05:11:18;;;;;;;172.30;67.37;;;;;;;-141.97;70.96;47632.47;4974375;28;20404;-87
2023/03/20 05:13:44;;;;;;;149.03;59.07;;;;;;;-141.97;71.18;47603.66;4972159;28;20158;-87
2023/03/20 05:16:09;;;;;;;130.53;49.10;;;;;;;-141.97;70.85;47595.97;4972565;28;20188;-87
2023/03/20 05:18:34;;;;;;;125.70;47.33;;;;;;;-141.97;70.79;47695.91;4979080;28;20156;-87
2023/03/20 05:21:01;;;;;;;118.53;40.83;;;;;;;-141.97;69.98;47657.47;5001265;28;20171;-89
2023/03/20 05:23:27;;;;;;;137.57;44.97;;;;;;;-141.97;71.60;47642.09;4998073;28;20190;-88
2023/03/20 05:25:52;;;;;;;106.80;32.83;;;;;;;-141.97;72.41;47515.22;4982966;28;20427;-87
2023/03/20 05:28:17;;;;;;;69.53;25.77;;;;;;;-141.97;72.52;47680.53;4981264;28;20170;-87
2023/03/20 05:30:43;;;;;;;154.90;64.07;;;;;;;-141.97;71.84;47626.72;4978036;28;20165;-84
2023/03/20 05:33:08;;;;;;;170.97;61.77;;;;;;;-141.97;72.15;47638.25;4977729;28;20267;-86
2023/03/20 05:35:34;;;;;;;95.73;39.57;;;;;;;-141.97;72.29;47557.53;4976394;28;20167;-86
2023/03/20 05:37:59;;;;;;;231.37;91.90;;;;;;;-141.97;72.33;47620.94;4975959;28;20662;-85
2023/03/20 05:40:25;;;;;;;67.07;29.33;;;;;;;-141.97;71.85;47607.50;4976220;28;20623;-85
2023/03/20 05:42:51;;;;;;;57.43;27.30;;;;;;;-141.97;70.79;47613.25;4974538;28;20178;-87
2023/03/20 05:45:17;;;;;;;60.73;28.67;;;;;;;-141.97;69.40;47630.56;4975657;28;20251;-87
2023/03/20 05:47:42;;;;;;;80.93;36.37;;;;;;;-141.97;69.11;47667.06;4975486;28;20415;-85
2023/03/20 05:50:09;;;;;;;94.00;43.53;;;;;;;-141.97;68.59;47590.19;4975695;28;20233;-85
2023/03/20 05:52:34;;;;;;;81.80;38.73;;;;;;;-141.97;67.86;47599.81;4990479;28;20646;-87
2023/03/20 05:54:59;;;;;;;60.53;30.20;;;;;;;-141.97;66.93;47595.97;4975864;28;20410;-88
2023/03/20 05:57:25;;;;;;;61.97;32.00;;;;;;;-141.97;67.17;47688.22;4991618;28;20180;-88
2023/03/20 05:59:51;;;;;;;75.70;33.13;;;;;;;-141.97;66.82;47553.69;4976268;28;20731;-88
2023/03/20 06:02:16;;;;;;;86.90;42.23;;;;;;;-141.97;66.05;47692.06;4975157;28;20434;-86
2023/03/20 06:04:42;;;;;;;77.83;35.37;;;;;;;-141.97;66.02;47592.13;4975068;28;20222;-88
2023/03/20 06:07:07;;;;;;;56.20;27.50;;;;;;;-141.97;65.66;47630.56;4974671;28;20176;-86
2023/03/20 06:09:33;;;;;;;56.93;24.33;;;;;;;-141.97;65.65;47584.44;4976085;28;20172;-87
2023/03/20 06:11:59;;;;;;;41.73;22.80;;;;;;;-141.97;65.73;47549.84;4990836;28;20242;-88
2023/03/20 06:14:25;;;;;;;49.20;24.27;;;;;;;-141.97;64.80;47644.00;4975387;28;20175;-86
2023/03/20 06:16:52;;;;;;;60.33;30.00;;;;;;;-141.97;64.24;47626.72;4973994;28;20168;-87
2023/03/20 06:19:18;;;;;;;56.80;26.47;;;;;;;-141.97;63.55;47661.31;4990892;28;20935;-87
2023/03/20 06:21:44;;;;;;;46.47;23.77;;;;;;;-141.97;63.23;47688.22;4974410;28;20930;-88
2023/03/20 06:24:09;;;;;;;45.53;23.90;;;;;;;-141.97;62.57;47692.06;4975750;28;20473;-87
2023/03/20 06:26:35;;;;;;;50.30;25.23;;;;;;;-141.97;61.75;47699.75;4975985;28;20251;-87
2023/03/20 06:29:00;;;;;;;48.03;24.70;;;;;;;-141.97;61.29;47599.81;4990879;28;20160;-90
2023/03/20 06:31:26;;;;;;;52.30;26.33;;;;;;;-141.97;60.82;47586.34;4975934;28;20251;-86
2023/03/20 06:33:51;;;;;;;58.73;29.40;;;;;;;-141.97;60.74;47624.78;4975414;28;21031;-86
2023/03/20 06:36:17;;;;;;;60.53;29.80;;;;;;;-141.97;60.00;47522.91;4976133;28;20219;-86
2023/03/20 06:38:42;;;;;;;66.93;34.53;;;;;;;-141.97;59.43;47632.47;4975749;28;20252;-86
2023/03/20 06:41:07;;;;;;;78.23;36.50;;;;;;;-141.97;59.49;47555.59;4974491;28;20203;-88
2023/03/20 06:43:33;;;;;;;61.90;30.43;;;;;;;-141.97;59.22;47740.13;4974497;28;20203;-87
2023/03/20 06:45:59;;;;;;;67.80;32.67;;;;;;;-141.97;58.50;47709.38;4990447;28;20278;-87
2023/03/20 06:48:24;;;;;;;66.37;31.43;;;;;;;-141.97;57.66;47580.59;4975805;28;20165;-88
2023/03/20 06:50:51;;;;;;;50.43;26.73;;;;;;;-141.97;57.31;47595.97;4976345;28;20243;-87
2023/03/20 06:53:18;;;;;;;52.13;25.93;;;;;;;-141.97;56.68;47686.31;4978682;28;20247;-88
2023/03/20 06:55:47;;;;;;;54.33;28.20;;;;;;;-141.97;55.95;47605.56;4975646;28;20172;-87
2023/03/20 06:58:12;;;;;;;52.10;26.43;;;;;;;-141.97;56.19;47672.84;4973768;28;20183;-88
2023/03/20 07:00:38;;;;;;;49.97;24.37;;;;;;;-141.97;55.54;47634.41;4974954;28;20168;-86
2023/03/20 07:03:04;;;;;;;47.73;23.40;;;;;;;-141.97;55.15;47569.06;4975013;28;20168;-89
2023/03/20 07:05:29;;;;;;;45.03;22.90;;;;;;;-141.97;54.59;47755.50;4975461;28;20175;-88
2023/03/20 07:07:55;;;;;;;43.23;23.70;;;;;;;-141.97;54.56;47534.44;4975759;28;20164;-88
2023/03/20 07:10:20;;;;;;;49.43;24.20;;;;;;;-141.97;54.03;47653.63;4975782;28;20536;-88
2023/03/20 07:12:46;;;;;;;45.57;22.63;;;;;;;-141.97;52.46;47607.50;4975289;28;20243;-89
2023/03/20 07:15:11;;;;;;;44.70;22.77;;;;;;;-141.97;52.12;47768.94;4989845;28;20200;-88
2023/03/20 07:17:36;;;;;;;41.17;21.60;;;;;;;-141.97;51.79;47599.81;4991689;28;20226;-89
2023/03/20 07:20:03;;;;;;;49.93;22.43;;;;;;;-141.97;50.56;47642.09;4992062;28;20286;-88
2023/03/20 07:22:30;;;;;;;41.27;23.13;;;;;;;-141.97;51.04;47626.72;4977368;28;20179;-88
2023/03/20 07:24:56;;;;;;;70.70;30.07;;;;;;;-141.97;51.38;47615.19;4974212;28;20200;-88
2023/03/20 07:27:22;;;;;;;59.87;27.93;;;;;;;-141.97;50.52;47730.50;4976310;28;20584;-85
2023/03/20 07:29:47;;;;;;;52.17;27.00;;;;;;;-141.97;49.57;47588.28;4977203;28;20168;-86
2023/03/20 07:32:13;;;;;;;56.30;28.60;;;;;;;-141.97;48.93;47538.28;4979936;28;20171;-87
2023/03/20 07:34:39;;;;;;;55.37;28.00;;;;;;;-141.97;49.31;47603.66;4978846;28;20164;-86
2023/03/20 07:37:04;;;;;;;49.50;25.47;;;;;;;-141.97;48.72;47722.81;4974208;28;20200;-86
2023/03/20 07:39:30;;;;;;;48.93;25.80;;;;;;;-141.97;48.35;47547.91;4973214;28;20231;-87
2023/03/20 07:41:56;;;;;;;55.90;26.50;;;;;;;-141.97;47.66;47565.22;4973873;28;20260;-87
2023/03/20 07:44:21;;;;;;;56.33;27.73;;;;;;;-141.97;47.25;47601.72;4973971;28;20227;-87
2023/03/20 07:46:47;;;;;;;58.47;27.37;;;;;;;-141.97;47.25;47532.53;4984933;28;20171;-88
2023/03/20 07:49:13;;;;;;;51.40;27.00;;;;;;;-141.97;47.28;47538.28;5016649;23;20286;-88
2023/03/20 07:51:39;;;;;;;52.27;26.10;;;;;;;-141.97;46.84;47795.88;5033314;28;20208;-87
2023/03/20 07:54:05;;;;;;;51.43;27.10;;;;;;;-141.97;46.10;47572.91;5012999;28;20214;-87
2023/03/20 07:56:30;;;;;;;51.50;25.90;;;;;;;-141.97;45.54;47724.75;5011170;28;20722;-88
2023/03/20 07:58:56;;;;;;;44.33;24.27;;;;;;;-141.97;45.19;47546.00;5013754;28;20167;-85
2023/03/20 08:01:22;;;;;;;47.70;25.53;;;;;;;-141.97;44.63;47638.25;5012311;28;20245;-88
2023/03/20 08:03:47;;;;;;;55.20;26.50;;;;;;;-141.97;45.24;47644.00;5009637;28;20550;-88
2023/03/20 08:06:12;;;;;;;52.57;26.07;;;;;;;-141.97;45.58;47472.94;5013834;28;20218;-88
2023/03/20 08:08:38;;;;;;;46.70;26.20;;;;;;;-141.97;45.78;47544.06;5012052;28;20175;-90
2023/03/20 08:11:04;;;;;;;58.90;27.20;;;;;;;-141.97;44.99;47557.53;4992752;28;20225;-88
2023/03/20 08:13:29;;;;;;;49.60;26.40;;;;;;;-141.97;44.97;47730.50;4992342;28;20164;-87
2023/03/20 08:15:55;;;;;;;51.87;28.10;;;;;;;-141.97;44.69;47605.56;4997606;28;20166;-87
2023/03/20 08:18:21;;;;;;;56.33;29.37;;;;;;;-141.97;44.35;47622.88;4994664;28;20195;-86
2023/03/20 08:20:49;;;;;;;54.93;28.80;;;;;;;-141.97;43.68;47628.63;4991883;28;20186;-87
2023/03/20 08:23:15;;;;;;;57.80;28.40;;;;;;;-141.97;43.45;47588.28;4990827;28;20265;-89
2023/03/20 08:25:46;;;;;;;58.53;28.17;;;;;;;-141.97;43.97;47695.91;4992638;28;20694;-86
2023/03/20 08:28:12;;;;;;;54.63;28.07;;;;;;;-141.97;43.93;47549.84;4991445;28;20226;-87
2023/03/20 08:30:37;;;;;;;56.60;27.87;;;;;;;-141.97;43.26;47601.72;5003395;28;20191;-88
2023/03/20 08:33:03;;;;;;;48.97;25.07;;;;;;;-141.97;42.48;47592.13;5011019;28;20266;-87
2023/03/20 08:35:29;;;;;;;44.57;25.27;;;;;;;-141.97;42.25;47524.84;4991265;28;20516;-87
2023/03/20 08:37:54;;;;;;;43.67;23.20;;;;;;;-141.97;42.28;47597.88;5008551;28;20197;-87
2023/03/20 08:40:20;;;;;;;44.63;22.07;;;;;;;-141.97;42.70;47659.38;4992170;28;20191;-86
2023/03/20 08:42:45;;;;;;;45.17;23.77;;;;;;;-141.97;42.38;47607.50;4991927;28;20179;-89
2023/03/20 08:45:11;;;;;;;50.33;24.83;;;;;;;-141.97;41.96;47705.53;4992560;28;20206;-89
2023/03/20 08:47:36;;;;;;;43.80;23.00;;;;;;;-141.97;41.10;47559.44;4997833;28;20682;-87
2023/03/20 08:50:02;;;;;;;41.77;22.37;;;;;;;-141.97;40.20;47580.59;4997230;28;20222;-91
2023/03/20 08:52:28;;;;;;;41.37;21.30;;;;;;;-141.97;40.36;47542.16;4991594;28;20183;-91
2023/03/20 08:54:53;;;;;;;43.97;24.20;;;;;;;-141.97;40.04;47501.78;4992071;28;20178;-91
2023/03/20 08:57:19;;;;;;;37.63;21.47;;;;;;;-141.97;40.22;47644.00;4977520;28;20322;-90
2023/03/20 08:59:44;;;;;;;46.37;23.70;;;;;;;-141.97;40.08;47674.78;4971814;28;20250;-90
2023/03/20 09:02:11;;;;;;;47.17;22.60;;;;;;;-141.97;39.79;47647.84;4972955;28;20173;-91
2023/03/20 09:04:36;;;;;;;48.23;24.33;;;;;;;-141.97;39.20;47734.34;4977811;28;20206;-87
2023/03/20 09:07:02;;;;;;;45.97;24.80;;;;;;;-141.97;40.24;47576.75;4990127;28;20163;-89
2023/03/20 09:09:36;;;;;;;42.40;23.03;;;;;;;-141.97;40.19;47732.44;4986810;28;20190;-87
2023/03/20 09:12:07;;;;;;;38.80;22.93;;;;;;;-141.97;39.32;47615.19;4972651;28;20507;-89
2023/03/20 09:14:37;;;;;;;37.43;21.97;;;;;;;-141.97;38.45;47546.00;4977385;28;20171;-88
2023/03/20 09:17:02;;;;;;;34.90;20.57;;;;;;;-141.97;38.61;47394.16;4991324;28;20175;-90
2023/03/20 09:19:28;;;;;;;40.27;22.00;;;;;;;-141.97;38.27;47565.22;4993611;28;20654;-88
2023/03/20 09:21:53;;;;;;;37.03;21.20;;;;;;;-141.97;37.77;47538.28;4992300;28;20605;-90
2023/03/20 09:24:19;;;;;;;38.00;21.23;;;;;;;-141.97;37.50;47492.16;4992761;28;20183;-88
2023/03/20 09:26:44;;;;;;;36.60;21.53;;;;;;;-141.97;37.88;47505.63;4993350;28;20246;-88
2023/03/20 09:29:10;;;;;;;33.37;20.40;;;;;;;-141.97;37.81;47718.97;4993233;28;20174;-87
2023/03/20 09:31:35;;;;;;;37.27;21.37;;;;;;;-141.97;37.50;47720.91;4993021;28;20174;-88
2023/03/20 09:34:00;;;;;;;38.13;20.93;;;;;;;-141.97;37.16;47521.00;4992674;28;20167;-89
2023/03/20 09:36:26;;;;;;;37.03;20.50;;;;;;;-141.97;37.00;47413.38;4992902;28;20282;-86
2023/03/20 09:38:51;;;;;;;36.20;21.33;;;;;;;-141.97;36.94;47580.59;4991292;28;20182;-88
2023/03/20 09:41:20;;;;;;;32.80;20.10;;;;;;;-141.97;36.49;47711.28;4992469;28;20159;-89
2023/03/20 09:44:08;;;;;;;33.83;19.80;;;;;;;-141.97;36.13;47536.38;4992881;28;20660;-88
2023/03/20 09:46:36;;;;;;;33.60;19.53;;;;;;;-141.97;36.38;47572.91;4991144;28;20175;-89
2023/03/20 09:49:17;;;;;;;38.20;19.93;;;;;;;-141.97;37.24;47599.81;4994224;28;20223;-88
2023/03/20 09:51:50;;;;;;;32.07;19.00;;;;;;;-141.97;36.45;47572.91;4991687;28;20180;-88
2023/03/20 09:54:21;;;;;;;31.90;19.10;;;;;;;-141.97;36.50;47601.72;4991672;28;20493;-88
2023/03/20 09:56:48;;;;;;;28.53;18.80;;;;;;;-141.97;36.17;47503.69;4990741;28;20187;-91
2023/03/20 09:59:16;;;;;;;37.27;19.27;;;;;;;-141.97;36.27;47640.16;4991990;28;20171;-88
2023/03/20 10:01:52;;;;;;;32.23;18.10;;;;;;;-141.97;35.95;47569.06;4993549;28;20600;-90
2023/03/20 10:04:17;;;;;;;31.23;18.50;;;;;;;-141.97;35.53;47503.69;4996846;28;20186;-88
2023/03/20 10:06:43;;;;;;;27.93;16.93;;;;;;;-141.97;34.74;47555.59;4995386;28;20167;-89
2023/03/20 10:09:21;;;;;;;31.70;17.57;;;;;;;-141.97;34.50;47355.72;5011673;28;20173;-87
2023/03/20 10:12:11;;;;;;;25.23;17.07;;;;;;;-141.97;34.21;47557.53;4987620;28;20204;-89
2023/03/20 10:14:49;;;;;;;30.83;17.20;;;;;;;-141.97;34.49;47569.06;4977101;28;20204;-89
2023/03/20 10:17:17;;;;;;;30.13;16.90;;;;;;;-141.97;34.89;47532.53;4976835;28;20232;-86
2023/03/20 10:19:52;;;;;;;26.67;15.37;;;;;;;-141.97;34.69;47653.63;4984261;28;20186;-87
2023/03/20 10:22:34;;;;;;;23.80;15.30;;;;;;;-141.97;33.92;47549.84;4973974;28;20560;-86
2023/03/20 10:25:20;;;;;;;26.27;15.83;;;;;;;-141.97;33.58;47517.16;4974714;28;20215;-88
2023/03/20 10:27:51;;;;;;;25.07;14.27;;;;;;;-141.97;33.66;47559.44;4973924;28;20637;-88
2023/03/20 10:30:28;;;;;;;23.60;14.37;;;;;;;-141.97;33.58;47569.06;4977800;28;20506;-90
2023/03/20 10:33:08;;;;;;;26.27;15.23;;;;;;;-141.97;34.99;47557.53;4994174;28;20606;-87
2023/03/20 10:36:03;;;;;;;25.30;15.33;;;;;;;-141.97;34.48;47567.13;4992697;28;20191;-88
2023/03/20 10:38:50;;;;;;;28.33;14.60;;;;;;;-141.97;34.45;47555.59;4953260;29;20199;-86
2023/03/20 10:41:20;;;;;;;25.07;14.67;;;;;;;-141.97;33.99;47542.16;4954148;29;20165;-90
2023/03/20 10:43:48;;;;;;;22.90;13.43;;;;;;;-141.97;33.32;47511.38;4937779;29;20213;-88
2023/03/20 10:46:27;;;;;;;25.03;13.80;;;;;;;-141.97;33.23;47457.56;4938764;29;20180;-88
2023/03/20 10:49:11;;;;;;;21.40;13.57;;;;;;;-141.97;33.28;47488.31;4954406;29;20315;-89
2023/03/20 10:51:47;;;;;;;20.70;13.27;;;;;;;-141.97;33.30;47534.44;4969496;29;20297;-90
2023/03/20 10:54:31;;;;;;;21.70;12.67;;;;;;;-141.97;32.48;47417.22;4960331;28;20260;-88
2023/03/20 10:56:59;;;;;;;19.03;12.63;;;;;;;-141.97;32.43;47507.53;4941595;29;20566;-89
2023/03/20 10:59:39;;;;;;;21.33;12.43;;;;;;;-141.97;32.36;47713.22;4937193;29;20657;-88
2023/03/20 11:02:12;;;;;;;21.37;11.83;;;;;;;-141.97;32.19;47519.06;4953585;29;20204;-88
2023/03/20 11:04:38;;;;;;;18.60;12.10;;;;;;;-141.97;32.16;47546.00;4953711;29;20269;-88
2023/03/20 11:07:20;;;;;;;19.70;11.60;;;;;;;-141.97;32.62;47505.63;4953908;29;20184;-88
2023/03/20 11:10:06;;;;;;;18.23;12.03;;;;;;;-141.97;32.97;47499.84;4953762;29;20701;-89